createdAt,value
2019-02-05T00:01:43.067Z,52.13
2019-02-05T00:04:14.748Z,34.33
2019-02-05T00:06:46.523Z,21.03
2019-02-05T00:09:18.203Z,28.03
2019-02-05T00:11:49.908Z,23.93
2019-02-05T00:14:21.595Z,25.50
2019-02-05T00:16:53.389Z,24.53
2019-02-05T00:19:25.060Z,22.23
2019-02-05T00:21:56.737Z,29.07
2019-02-05T00:24:28.432Z,22.73
2019-02-05T00:27:00.489Z,22.30
2019-02-05T00:29:32.169Z,40.83
2019-02-05T00:32:03.789Z,28.10
2019-02-05T00:34:35.391Z,30.67
2019-02-05T00:37:07.119Z,23.50
2019-02-05T00:39:39.461Z,28.20
2019-02-05T00:42:11.356Z,20.43
2019-02-05T00:44:43.314Z,23.40
2019-02-05T00:47:15.011Z,18.80
2019-02-05T00:49:46.602Z,19.43
2019-02-05T00:52:18.557Z,17.40
2019-02-05T00:54:50.152Z,16.50
2019-02-05T00:57:21.859Z,18.00
2019-02-05T00:59:53.524Z,19.07
2019-02-05T01:02:25.141Z,23.20
2019-02-05T01:04:57.105Z,32.90
2019-02-05T01:07:28.813Z,19.50
2019-02-05T01:10:00.492Z,16.40
2019-02-05T01:12:32.202Z,17.13
2019-02-05T01:15:04.430Z,15.00
2019-02-05T01:17:37.613Z,16.10
2019-02-05T01:20:11.938Z,17.63
2019-02-05T01:22:43.651Z,19.27
2019-02-05T01:25:16.993Z,19.87
2019-02-05T01:27:48.699Z,15.30
2019-02-05T01:30:22.396Z,15.87
2019-02-05T01:32:54.098Z,16.03
2019-02-05T01:35:25.791Z,15.73
2019-02-05T01:37:57.504Z,15.87
2019-02-05T01:40:29.499Z,16.70
2019-02-05T01:43:01.213Z,16.53
2019-02-05T01:45:32.925Z,18.37
2019-02-05T01:48:04.628Z,17.90
2019-02-05T01:50:36.315Z,18.10
2019-02-05T01:53:08.302Z,19.00
2019-02-05T01:55:40.074Z,15.97
2019-02-05T01:58:11.758Z,17.53
2019-02-05T02:00:43.366Z,17.20
2019-02-05T02:03:15.107Z,14.87
2019-02-05T02:05:47.319Z,16.50
2019-02-05T02:08:19.017Z,16.13
2019-02-05T02:10:50.728Z,17.07
2019-02-05T02:13:22.420Z,17.27
2019-02-05T02:15:54.121Z,16.67
2019-02-05T02:18:26.092Z,17.40
2019-02-05T02:20:57.700Z,39.00
2019-02-05T02:23:29.406Z,22.07
2019-02-05T02:26:01.093Z,28.23
2019-02-05T02:28:32.817Z,19.00
2019-02-05T02:31:04.682Z,26.50
2019-02-05T02:33:36.449Z,17.77
2019-02-05T02:36:08.140Z,17.43
2019-02-05T02:38:40.849Z,17.27
2019-02-05T02:41:13.045Z,17.53
2019-02-05T02:43:44.771Z,16.30
2019-02-05T02:46:16.472Z,16.23
2019-02-05T02:48:48.191Z,15.77
2019-02-05T02:51:19.858Z,16.27
2019-02-05T02:53:51.552Z,14.93
2019-02-05T02:56:23.243Z,15.83
2019-02-05T02:58:54.962Z,16.87
2019-02-05T03:01:26.763Z,16.03
2019-02-05T03:03:58.479Z,15.23
2019-02-05T03:06:30.150Z,16.03
2019-02-05T03:09:02.147Z,15.43
2019-02-05T03:11:35.433Z,18.40
2019-02-05T03:14:08.118Z,18.63
2019-02-05T03:16:40.087Z,16.53
2019-02-05T03:19:11.856Z,16.57
2019-02-05T03:21:44.303Z,16.03
2019-02-05T03:24:16.293Z,16.87
2019-02-05T03:26:48.061Z,17.00
2019-02-05T03:29:19.755Z,18.17
2019-02-05T03:31:51.446Z,20.70
2019-02-05T03:34:23.086Z,20.23
2019-02-05T03:36:54.936Z,16.73
2019-02-05T03:39:26.647Z,17.90
2019-02-05T03:41:58.324Z,20.43
2019-02-05T03:44:30.041Z,19.67
2019-02-05T03:47:01.772Z,17.53
2019-02-05T03:49:33.834Z,19.23
2019-02-05T03:52:14.761Z,24.73
2019-02-05T03:55:38.602Z,19.60
2019-02-05T03:58:43.420Z,21.00
2019-02-05T04:01:49.371Z,21.40
2019-02-05T04:05:05.900Z,21.43
2019-02-05T04:08:22.173Z,21.47
2019-02-05T04:11:49.851Z,19.80
2019-02-05T04:15:10.753Z,21.43
2019-02-05T04:18:38.473Z,18.03
2019-02-05T04:22:01.037Z,17.83
2019-02-05T04:25:13.607Z,16.93
2019-02-05T04:28:38.273Z,18.60
2019-02-05T04:31:50.396Z,18.07
2019-02-05T04:35:10.572Z,19.00
2019-02-05T04:38:15.719Z,18.00
2019-02-05T04:41:14.266Z,44.40
2019-02-05T04:44:15.860Z,22.30
2019-02-05T04:47:33.635Z,23.80
2019-02-05T04:50:13.908Z,53.60
2019-02-05T04:53:20.186Z,30.47
2019-02-05T04:56:15.147Z,26.47
2019-02-05T04:59:22.398Z,25.13
2019-02-05T05:02:22.604Z,25.40
2019-02-05T05:05:31.697Z,19.50
2019-02-05T05:08:38.777Z,25.47
2019-02-05T05:11:10.455Z,32.87
2019-02-05T05:13:42.517Z,25.17
2019-02-05T05:16:14.342Z,18.90
2019-02-05T05:18:46.279Z,18.23
2019-02-05T05:21:18.072Z,18.87
2019-02-05T05:23:50.014Z,19.77
2019-02-05T05:26:21.976Z,23.47
2019-02-05T05:28:53.759Z,26.30
2019-02-05T05:31:25.388Z,24.00
2019-02-05T05:33:57.098Z,25.30
2019-02-05T05:36:28.802Z,20.87
2019-02-05T05:39:00.882Z,21.37
2019-02-05T05:41:34.135Z,30.20
2019-02-05T05:44:05.849Z,36.77
2019-02-05T05:46:37.653Z,39.07
2019-02-05T05:49:09.453Z,42.40
2019-02-05T05:51:41.494Z,39.17
2019-02-05T05:54:13.507Z,36.73
2019-02-05T05:56:45.189Z,29.03
2019-02-05T05:59:16.977Z,29.47
2019-02-05T06:01:48.760Z,26.73
2019-02-05T06:04:20.487Z,26.13
2019-02-05T06:06:52.263Z,39.50
2019-02-05T06:09:24.976Z,46.73
2019-02-05T06:11:56.663Z,36.57
2019-02-05T06:14:28.357Z,31.67
2019-02-05T06:16:59.995Z,28.60
2019-02-05T06:19:31.978Z,24.97
2019-02-05T06:22:03.678Z,25.30
2019-02-05T06:24:35.305Z,31.90
2019-02-05T06:27:06.995Z,34.00
2019-02-05T06:29:38.802Z,39.20
2019-02-05T06:32:10.750Z,38.93
2019-02-05T06:34:42.474Z,41.50
2019-02-05T06:37:14.331Z,37.90
2019-02-05T06:39:46.261Z,33.93
2019-02-05T06:42:17.974Z,36.30
2019-02-05T06:44:49.977Z,42.00
2019-02-05T06:47:21.703Z,44.73
2019-02-05T06:49:53.645Z,37.43
2019-02-05T06:52:25.363Z,33.63
2019-02-05T06:54:57.301Z,30.37
2019-02-05T06:57:29.189Z,22.60
2019-02-05T07:00:00.806Z,39.97
2019-02-05T07:02:32.695Z,33.73
2019-02-05T07:05:04.368Z,63.10
2019-02-05T07:07:36.216Z,66.63
2019-02-05T07:10:10.827Z,43.03
2019-02-05T07:12:42.473Z,36.10
2019-02-05T07:15:15.158Z,36.40
2019-02-05T07:17:49.919Z,33.40
2019-02-05T07:20:20.230Z,25.73
2019-02-05T07:22:52.350Z,22.80
2019-02-05T07:25:28.394Z,24.07
2019-02-05T07:28:00.552Z,27.40
2019-02-05T07:30:32.707Z,34.07
2019-02-05T07:33:04.403Z,29.43
2019-02-05T07:35:36.165Z,29.80
2019-02-05T07:38:07.884Z,32.50
2019-02-05T07:40:39.661Z,41.53
2019-02-05T07:43:11.837Z,38.03
2019-02-05T07:45:43.520Z,27.00
2019-02-05T07:48:15.173Z,26.90
2019-02-05T07:50:47.224Z,28.47
2019-02-05T07:53:18.941Z,28.73
2019-02-05T07:55:50.637Z,25.87
2019-02-05T07:58:23.320Z,25.57
2019-02-05T08:00:55.089Z,22.93
2019-02-05T08:03:26.892Z,21.27
2019-02-05T08:05:58.790Z,19.80
2019-02-05T08:08:30.518Z,23.77
2019-02-05T08:11:02.381Z,25.73
2019-02-05T08:13:34.134Z,21.83
2019-02-05T08:16:05.890Z,21.57
2019-02-05T08:18:37.586Z,23.17
2019-02-05T08:21:09.539Z,22.17
2019-02-05T08:23:41.445Z,24.47
2019-02-05T08:26:13.396Z,22.73
2019-02-05T08:28:45.167Z,23.53
2019-02-05T08:31:16.894Z,23.57
2019-02-05T08:33:48.863Z,29.10
2019-02-05T08:36:21.543Z,22.13
2019-02-05T08:38:53.340Z,26.03
2019-02-05T08:41:24.955Z,27.07
2019-02-05T08:43:56.669Z,31.50
2019-02-05T08:46:28.403Z,31.50
2019-02-05T08:49:00.203Z,30.13
2019-02-05T08:51:31.866Z,35.40
2019-02-05T08:54:03.633Z,26.80
2019-02-05T08:56:35.536Z,22.67
2019-02-05T08:59:07.318Z,20.00
2019-02-05T09:01:39.513Z,19.70
2019-02-05T09:04:11.401Z,20.60
2019-02-05T09:06:43.348Z,23.67
2019-02-05T09:09:15.139Z,24.10
2019-02-05T09:11:46.913Z,21.40
2019-02-05T09:14:18.521Z,21.93
2019-02-05T09:16:50.148Z,22.23
2019-02-05T09:19:21.805Z,21.63
2019-02-05T09:21:53.574Z,22.87
2019-02-05T09:24:25.302Z,26.13
2019-02-05T09:27:06.025Z,24.23
2019-02-05T09:29:37.736Z,24.70
2019-02-05T09:32:09.555Z,20.50
2019-02-05T09:34:41.404Z,33.80
2019-02-05T09:37:13.316Z,26.47
2019-02-05T09:39:45.015Z,19.83
2019-02-05T09:42:16.620Z,20.03
2019-02-05T09:44:48.378Z,19.00
2019-02-05T09:47:20.033Z,28.27
2019-02-05T09:49:51.652Z,20.80
2019-02-05T09:52:23.318Z,19.47
2019-02-05T09:54:55.284Z,17.67
2019-02-05T09:57:27.020Z,20.73
2019-02-05T09:59:58.728Z,18.40
2019-02-05T10:02:30.354Z,20.13
2019-02-05T10:05:02.068Z,18.90
2019-02-05T10:07:34.009Z,20.23
2019-02-05T10:10:06.171Z,18.87
2019-02-05T10:12:37.842Z,18.27
2019-02-05T10:15:13.067Z,38.60
2019-02-05T10:17:44.774Z,20.97
2019-02-05T10:20:16.617Z,21.57
2019-02-05T10:22:48.430Z,20.73
2019-02-05T10:25:20.206Z,16.63
2019-02-05T10:27:51.813Z,17.20
2019-02-05T10:30:25.894Z,16.93
2019-02-05T10:32:57.687Z,16.27
2019-02-05T10:35:29.397Z,15.20
2019-02-05T10:38:01.082Z,14.83
2019-02-05T10:40:33.845Z,13.03
2019-02-05T10:43:05.856Z,12.67
2019-02-05T10:45:37.529Z,12.43
2019-02-05T10:48:10.383Z,13.47
2019-02-05T10:50:42.084Z,13.27
2019-02-05T10:53:13.910Z,13.33
2019-02-05T10:55:45.550Z,16.43
2019-02-05T10:58:17.213Z,17.63
2019-02-05T11:00:49.109Z,20.80
2019-02-05T11:03:20.885Z,17.10
2019-02-05T11:05:52.676Z,11.73
2019-02-05T11:08:23.302Z,12.73
2019-02-05T11:10:54.904Z,16.33
2019-02-05T11:13:26.670Z,16.37
2019-02-05T11:15:58.392Z,14.97
2019-02-05T11:18:30.510Z,11.20
2019-02-05T11:21:04.310Z,17.63
2019-02-05T11:23:35.693Z,93.63
2019-02-05T11:26:07.419Z,19.37
2019-02-05T11:28:39.492Z,12.53
2019-02-05T11:31:11.350Z,12.23
2019-02-05T11:33:43.280Z,13.53
2019-02-05T11:36:14.956Z,11.53
2019-02-05T11:38:46.650Z,10.83
2019-02-05T11:41:18.290Z,10.13
2019-02-05T11:43:51.059Z,11.00
2019-02-05T11:46:22.864Z,10.53
2019-02-05T11:48:54.972Z,9.07
2019-02-05T11:51:26.678Z,9.17
2019-02-05T11:53:58.373Z,18.50
2019-02-05T11:56:30.082Z,19.90
2019-02-05T11:59:01.753Z,20.60
2019-02-05T12:01:39.023Z,11.47
2019-02-05T12:04:08.619Z,9.00
2019-02-05T12:06:40.518Z,9.57
2019-02-05T12:09:24.156Z,8.73
2019-02-05T12:11:56.002Z,9.27
2019-02-05T12:14:28.096Z,9.33
2019-02-05T12:16:59.860Z,9.27
2019-02-05T12:19:31.565Z,8.53
2019-02-05T12:22:03.259Z,7.63
2019-02-05T12:24:34.942Z,8.50
2019-02-05T12:27:06.552Z,10.90
2019-02-05T12:29:38.235Z,25.77
2019-02-05T12:32:10.154Z,16.53
2019-02-05T12:34:43.289Z,11.53
2019-02-05T12:37:14.911Z,11.07
2019-02-05T12:39:46.614Z,51.63
2019-02-05T12:42:18.398Z,17.50
2019-02-05T12:44:50.085Z,11.30
2019-02-05T12:47:22.077Z,12.60
2019-02-05T12:49:53.790Z,16.27
2019-02-05T12:52:25.449Z,16.37
2019-02-05T12:54:57.137Z,12.73
2019-02-05T12:57:28.778Z,12.67
2019-02-05T13:00:00.927Z,13.50
2019-02-05T13:02:32.942Z,13.10
2019-02-05T13:05:04.629Z,10.37
2019-02-05T13:07:36.322Z,9.47
2019-02-05T13:10:09.696Z,9.73
2019-02-05T13:12:41.681Z,8.73
2019-02-05T13:15:13.520Z,9.23
2019-02-05T13:17:46.292Z,8.57
2019-02-05T13:20:20.694Z,9.10
2019-02-05T13:22:52.439Z,10.40
2019-02-05T13:25:25.564Z,9.97
2019-02-05T13:27:57.262Z,10.53
2019-02-05T13:30:30.524Z,15.20
2019-02-05T13:33:02.244Z,71.37
2019-02-05T13:35:34.306Z,49.13
2019-02-05T13:38:06.378Z,60.23
2019-02-05T13:40:38.074Z,84.43
2019-02-05T13:43:10.039Z,26.20
2019-02-05T13:45:41.759Z,14.80
2019-02-05T13:48:13.840Z,8.20
2019-02-05T13:50:45.631Z,13.27
2019-02-05T13:53:17.400Z,10.43
2019-02-05T13:55:49.092Z,15.10
2019-02-05T13:58:20.804Z,8.90
2019-02-05T14:00:54.554Z,8.83
2019-02-05T14:03:26.226Z,11.23
2019-02-05T14:05:57.911Z,12.07
2019-02-05T14:08:29.598Z,14.70
2019-02-05T14:11:01.300Z,17.00
2019-02-05T14:13:33.288Z,23.47
2019-02-05T14:16:04.977Z,11.63
2019-02-05T14:18:36.708Z,48.60
2019-02-05T14:21:08.450Z,112.03
2019-02-05T14:23:40.159Z,195.13
2019-02-05T14:26:12.144Z,52.43
2019-02-05T14:28:43.854Z,81.50
2019-02-05T14:31:15.569Z,78.57
2019-02-05T14:33:47.273Z,22.03
2019-02-05T14:36:18.892Z,23.10
2019-02-05T14:38:50.980Z,8.90
2019-02-05T14:41:22.600Z,11.03
2019-02-05T14:43:54.320Z,11.20
2019-02-05T14:46:25.976Z,8.70
2019-02-05T14:48:57.684Z,8.63
2019-02-05T14:51:29.651Z,8.33
2019-02-05T14:54:01.400Z,10.27
2019-02-05T14:56:33.140Z,9.73
2019-02-05T14:59:04.888Z,9.13
2019-02-05T15:01:43.064Z,9.33
2019-02-05T15:04:10.176Z,8.50
2019-02-05T15:06:41.856Z,8.97
2019-02-05T15:09:13.550Z,9.93
2019-02-05T15:11:45.216Z,8.07
2019-02-05T15:14:16.916Z,9.63
2019-02-05T15:16:48.596Z,7.70
2019-02-05T15:19:20.307Z,8.40
2019-02-05T15:21:52.005Z,7.93
2019-02-05T15:24:23.688Z,8.33
2019-02-05T15:26:55.363Z,8.37
2019-02-05T15:29:27.043Z,9.77
2019-02-05T15:31:58.707Z,7.70
2019-02-05T15:34:30.669Z,8.63
2019-02-05T15:37:02.368Z,9.53
2019-02-05T15:39:34.088Z,29.43
2019-02-05T15:42:05.754Z,9.23
2019-02-05T15:44:37.458Z,8.40
2019-02-05T15:47:09.152Z,8.90
2019-02-05T15:49:41.274Z,9.23
2019-02-05T15:52:13.214Z,9.50
2019-02-05T15:54:44.902Z,11.10
2019-02-05T15:57:16.610Z,14.53
2019-02-05T15:59:48.333Z,12.13
2019-02-05T16:02:20.021Z,13.00
2019-02-05T16:04:51.712Z,9.10
2019-02-05T16:07:23.404Z,10.43
2019-02-05T16:09:55.073Z,8.57
2019-02-05T16:12:26.766Z,10.63
2019-02-05T16:14:58.386Z,9.63
2019-02-05T16:17:30.088Z,10.37
2019-02-05T16:20:01.783Z,18.90
2019-02-05T16:22:34.595Z,30.00
2019-02-05T16:25:07.483Z,30.80
2019-02-05T16:27:39.406Z,16.90
2019-02-05T16:30:17.391Z,11.93
2019-02-05T16:32:49.076Z,10.30
2019-02-05T16:35:20.721Z,12.50
2019-02-05T16:37:53.222Z,13.77
2019-02-05T16:40:26.233Z,23.67
2019-02-05T16:42:58.302Z,14.33
2019-02-05T16:45:30.030Z,12.50
2019-02-05T16:48:01.708Z,25.17
2019-02-05T16:50:35.903Z,12.67
2019-02-05T16:53:08.366Z,13.93
2019-02-05T16:55:40.190Z,24.33
2019-02-05T16:58:11.878Z,19.83
2019-02-05T17:00:43.559Z,12.73
2019-02-05T17:03:15.644Z,11.27
2019-02-05T17:05:47.340Z,13.20
2019-02-05T17:08:19.028Z,13.63
2019-02-05T17:10:50.721Z,13.53
2019-02-05T17:13:22.413Z,13.33
2019-02-05T17:15:54.128Z,12.43
2019-02-05T17:18:25.826Z,15.33
2019-02-05T17:20:57.578Z,14.50
2019-02-05T17:23:29.594Z,11.63
2019-02-05T17:26:01.369Z,12.27
2019-02-05T17:28:33.415Z,10.50
2019-02-05T17:31:05.136Z,12.13
2019-02-05T17:33:37.862Z,11.13
2019-02-05T17:36:10.124Z,11.33
2019-02-05T17:38:41.745Z,12.70
2019-02-05T17:41:13.464Z,10.87
2019-02-05T17:43:46.334Z,10.23
2019-02-05T17:46:18.181Z,11.77
2019-02-05T17:48:51.318Z,11.97
2019-02-05T17:51:23.235Z,11.63
2019-02-05T17:53:56.409Z,11.43
2019-02-05T17:56:28.411Z,11.90
2019-02-05T17:59:00.079Z,12.17
2019-02-05T18:01:31.797Z,12.20
2019-02-05T18:04:03.502Z,10.87
2019-02-05T18:06:35.196Z,10.93
2019-02-05T18:09:08.283Z,12.17
2019-02-05T18:11:42.271Z,12.40
2019-02-05T18:14:15.175Z,12.87
2019-02-05T18:16:46.854Z,10.87
2019-02-05T18:19:18.535Z,11.70
2019-02-05T18:21:50.582Z,12.23
2019-02-05T18:24:22.203Z,12.77
2019-02-05T18:26:54.055Z,13.33
2019-02-05T18:29:28.866Z,11.47
2019-02-05T18:32:00.610Z,13.93
2019-02-05T18:34:32.354Z,12.53
2019-02-05T18:37:05.278Z,15.40
2019-02-05T18:39:39.952Z,20.57
2019-02-05T18:42:11.070Z,19.27
2019-02-05T18:44:44.313Z,12.60
2019-02-05T18:47:16.272Z,12.63
2019-02-05T18:49:48.036Z,10.63
2019-02-05T18:52:20.345Z,14.23
2019-02-05T18:54:54.968Z,13.63
2019-02-05T18:57:30.163Z,10.63
2019-02-05T19:00:02.246Z,11.87
2019-02-05T19:02:35.956Z,12.50
2019-02-05T19:05:10.440Z,11.10
2019-02-05T19:07:44.582Z,12.50
2019-02-05T19:10:18.503Z,11.43
2019-02-05T19:12:51.714Z,13.50
2019-02-05T19:15:25.505Z,14.37
2019-02-05T19:17:57.429Z,13.97
2019-02-05T19:20:32.236Z,14.27
2019-02-05T19:23:04.559Z,16.50
2019-02-05T19:25:55.183Z,16.40
2019-02-05T19:28:36.122Z,31.53
2019-02-05T19:31:17.303Z,16.40
2019-02-05T19:33:49.176Z,16.13
2019-02-05T19:36:20.900Z,16.50
2019-02-05T19:38:53.681Z,16.50
2019-02-05T19:41:25.387Z,18.43
2019-02-05T19:43:57.103Z,18.10
2019-02-05T19:46:46.349Z,23.97
2019-02-05T19:49:30.320Z,25.50
2019-02-05T19:52:02.443Z,23.67
2019-02-05T19:54:34.162Z,20.07
2019-02-05T19:57:05.951Z,25.40
2019-02-05T19:59:37.786Z,18.97
2019-02-05T20:02:10.790Z,19.13
2019-02-05T20:04:43.127Z,17.10
2019-02-05T20:07:15.034Z,15.40
2019-02-05T20:09:47.973Z,17.13
2019-02-05T20:12:22.471Z,17.60
2019-02-05T20:14:55.191Z,14.83
2019-02-05T20:17:27.185Z,15.97
2019-02-05T20:19:59.129Z,17.20
2019-02-05T20:22:30.841Z,17.07
2019-02-05T20:25:04.488Z,15.83
2019-02-05T20:27:38.832Z,15.63
2019-02-05T20:30:12.568Z,14.40
2019-02-05T20:32:44.315Z,13.83
2019-02-05T20:35:16.246Z,20.97
2019-02-05T20:37:48.384Z,20.93
2019-02-05T20:40:20.249Z,21.17
2019-02-05T20:42:52.512Z,15.77
2019-02-05T20:45:25.602Z,13.57
2019-02-05T20:47:57.640Z,13.97
2019-02-05T20:50:29.469Z,17.27
2019-02-05T20:53:13.644Z,16.30
2019-02-05T20:55:41.807Z,17.77
2019-02-05T20:58:13.783Z,13.43
2019-02-05T21:00:46.567Z,18.30
2019-02-05T21:03:19.602Z,13.80
2019-02-05T21:05:51.386Z,14.20
2019-02-05T21:08:23.465Z,15.40
2019-02-05T21:10:57.726Z,13.87
2019-02-05T21:13:29.469Z,17.70
2019-02-05T21:16:01.677Z,24.73
2019-02-05T21:18:33.460Z,13.10
2019-02-05T21:21:08.736Z,15.20
2019-02-05T21:23:40.927Z,17.23
2019-02-05T21:26:12.769Z,15.73
2019-02-05T21:28:44.600Z,16.43
2019-02-05T21:31:16.453Z,19.40
2019-02-05T21:33:48.267Z,16.67
2019-02-05T21:36:20.617Z,29.00
2019-02-05T21:38:52.694Z,16.17
2019-02-05T21:41:24.520Z,16.13
2019-02-05T21:43:58.224Z,17.53
2019-02-05T21:46:31.585Z,16.37
2019-02-05T21:49:03.336Z,15.83
2019-02-05T21:51:40.480Z,17.73
2019-02-05T21:54:09.722Z,16.70
2019-02-05T21:56:41.562Z,15.63
2019-02-05T21:59:14.810Z,22.60
2019-02-05T22:01:46.675Z,17.70
2019-02-05T22:04:26.714Z,19.53
2019-02-05T22:06:51.857Z,16.60
2019-02-05T22:09:23.611Z,27.50
2019-02-05T22:11:55.488Z,16.73
2019-02-05T22:14:28.253Z,17.57
2019-02-05T22:16:59.935Z,15.13
2019-02-05T22:19:31.690Z,19.17
2019-02-05T22:22:03.448Z,27.13
2019-02-05T22:24:35.252Z,16.60
2019-02-05T22:27:07.240Z,18.37
2019-02-05T22:29:38.860Z,18.60
2019-02-05T22:32:10.653Z,19.57
2019-02-05T22:34:42.485Z,15.30
2019-02-05T22:37:14.370Z,16.60
2019-02-05T22:39:46.241Z,26.33
2019-02-05T22:42:17.931Z,20.20
2019-02-05T22:44:49.783Z,20.23
2019-02-05T22:47:21.543Z,18.93
2019-02-05T22:49:53.315Z,22.90
2019-02-05T22:52:26.117Z,39.00
2019-02-05T22:54:57.799Z,18.90
2019-02-05T22:57:31.662Z,17.50
2019-02-05T23:00:02.910Z,20.63
2019-02-05T23:02:39.040Z,17.73
2019-02-05T23:05:33.872Z,21.97
2019-02-05T23:08:05.687Z,21.80
2019-02-05T23:11:03.330Z,15.77
2019-02-05T23:13:34.359Z,17.13
2019-02-05T23:16:23.494Z,23.10
2019-02-05T23:18:55.285Z,16.20
2019-02-05T23:21:27.079Z,17.53
2019-02-05T23:23:59.172Z,27.70
2019-02-05T23:26:31.893Z,14.27
2019-02-05T23:29:03.609Z,15.57
2019-02-05T23:31:35.639Z,14.20
2019-02-05T23:34:07.375Z,15.63
2019-02-05T23:36:39.483Z,14.00
2019-02-05T23:39:11.391Z,13.07
2019-02-05T23:41:43.264Z,15.40
2019-02-05T23:44:14.934Z,15.63
2019-02-05T23:46:46.697Z,14.40
2019-02-05T23:49:18.609Z,13.63
2019-02-05T23:51:50.226Z,13.73
2019-02-05T23:54:23.040Z,18.23
2019-02-05T23:56:54.798Z,14.00
2019-02-05T23:59:26.520Z,12.87
